createdAt,value
2022-09-07T00:00:42.643Z,1.70
2022-09-07T00:01:46.469Z,2.20
2022-09-07T00:02:48.152Z,1.90
2022-09-07T00:03:51.120Z,1.60
2022-09-07T00:04:53.269Z,2.20
2022-09-07T00:05:57.237Z,2.40
2022-09-07T00:06:58.960Z,3.40
2022-09-07T00:08:01.532Z,2.57
2022-09-07T00:09:04.144Z,2.93
2022-09-07T00:10:07.931Z,2.50
2022-09-07T00:11:13.210Z,2.00
2022-09-07T00:12:15.775Z,2.13
2022-09-07T00:13:17.388Z,3.10
2022-09-07T00:14:19.964Z,2.27
2022-09-07T00:15:21.560Z,2.23
2022-09-07T00:16:28.387Z,3.37
2022-09-07T00:17:29.960Z,3.00
2022-09-07T00:18:32.834Z,2.20
2022-09-07T00:19:34.469Z,3.07
2022-09-07T00:20:37.446Z,2.10
2022-09-07T00:21:40.398Z,2.90
2022-09-07T00:22:43.170Z,2.50
2022-09-07T00:23:45.523Z,2.17
2022-09-07T00:24:48.088Z,2.33
2022-09-07T00:25:53.916Z,3.20
2022-09-07T00:26:57.045Z,2.50
2022-09-07T00:27:58.825Z,2.40
2022-09-07T00:29:03.658Z,2.77
2022-09-07T00:30:06.697Z,2.40
2022-09-07T00:31:11.994Z,2.40
2022-09-07T00:32:13.640Z,2.27
2022-09-07T00:33:16.228Z,1.67
2022-09-07T00:34:17.846Z,2.23
2022-09-07T00:35:20.418Z,2.30
2022-09-07T00:36:22.763Z,2.20
2022-09-07T00:37:26.659Z,1.60
2022-09-07T00:38:28.354Z,1.90
2022-09-07T00:39:31.076Z,1.97
2022-09-07T00:40:32.674Z,2.53
2022-09-07T00:41:35.237Z,1.77
2022-09-07T00:42:36.862Z,2.37
2022-09-07T00:43:41.976Z,2.60
2022-09-07T00:45:10.206Z,1.77
2022-09-07T00:46:14.533Z,1.90
2022-09-07T00:47:21.906Z,2.10
2022-09-07T00:48:27.798Z,2.07
2022-09-07T00:49:31.063Z,1.90
2022-09-07T00:50:38.234Z,2.00
2022-09-07T00:51:47.309Z,2.17
2022-09-07T00:52:56.769Z,2.10
2022-09-07T00:54:03.689Z,3.13
2022-09-07T00:55:10.032Z,1.83
2022-09-07T00:56:13.979Z,2.10
2022-09-07T00:57:15.727Z,1.90
2022-09-07T00:58:20.722Z,2.33
2022-09-07T00:59:26.228Z,2.03
2022-09-07T01:00:29.118Z,2.00
2022-09-07T01:01:31.466Z,1.70
2022-09-07T01:02:34.408Z,1.83
2022-09-07T01:03:40.872Z,1.90
2022-09-07T01:04:45.199Z,1.67
2022-09-07T01:05:51.772Z,2.27
2022-09-07T01:06:56.122Z,1.83
2022-09-07T01:10:16.294Z,2.13
2022-09-07T01:11:20.732Z,2.07
2022-09-07T01:12:23.404Z,1.80
2022-09-07T01:13:25.059Z,2.47
2022-09-07T01:14:32.819Z,2.20
2022-09-07T01:15:43.684Z,1.80
2022-09-07T01:17:00.549Z,1.60
2022-09-07T01:18:11.062Z,1.80
2022-09-07T01:19:40.331Z,2.00
2022-09-07T01:21:02.598Z,1.80
2022-09-07T01:22:23.634Z,1.97
2022-09-07T01:23:56.022Z,2.70
2022-09-07T01:25:05.594Z,2.00
2022-09-07T01:26:28.363Z,2.03
2022-09-07T01:27:53.917Z,1.93
2022-09-07T01:29:02.116Z,2.20
2022-09-07T01:30:07.394Z,2.40
2022-09-07T01:31:14.076Z,2.17
2022-09-07T01:32:26.102Z,2.20
2022-09-07T01:33:45.361Z,2.57
2022-09-07T01:34:52.762Z,2.33
2022-09-07T01:36:04.712Z,2.20
2022-09-07T01:37:15.014Z,2.40
2022-09-07T01:38:24.623Z,3.10
2022-09-07T01:39:32.846Z,2.57
2022-09-07T01:40:43.312Z,2.50
2022-09-07T01:41:50.221Z,2.53
2022-09-07T01:43:00.104Z,2.97
2022-09-07T01:44:06.577Z,2.57
2022-09-07T01:45:13.921Z,2.40
2022-09-07T01:46:22.760Z,2.67
2022-09-07T01:47:29.700Z,2.77
2022-09-07T01:48:36.977Z,2.40
2022-09-07T01:49:43.355Z,2.20
2022-09-07T01:50:50.975Z,2.20
2022-09-07T01:51:57.973Z,2.70
2022-09-07T01:53:07.219Z,2.63
2022-09-07T01:54:15.148Z,2.10
2022-09-07T01:55:22.525Z,2.40
2022-09-07T01:56:30.676Z,2.60
2022-09-07T01:57:38.183Z,2.30
2022-09-07T01:58:44.765Z,2.83
2022-09-07T01:59:52.317Z,2.20
2022-09-07T02:00:58.180Z,2.50
2022-09-07T02:02:06.574Z,2.70
2022-09-07T02:03:14.309Z,2.27
2022-09-07T02:04:20.897Z,2.00
2022-09-07T02:05:28.275Z,2.10
2022-09-07T02:06:38.398Z,2.40
2022-09-07T02:07:45.261Z,2.23
2022-09-07T02:08:52.541Z,1.83
2022-09-07T02:09:59.375Z,1.90
2022-09-07T02:11:08.463Z,2.10
2022-09-07T02:12:17.505Z,1.67
2022-09-07T02:13:25.821Z,2.03
2022-09-07T02:14:35.380Z,2.33
2022-09-07T02:15:44.555Z,2.30
2022-09-07T02:16:54.492Z,2.30
2022-09-07T02:18:03.256Z,2.30
2022-09-07T02:19:10.697Z,3.40
2022-09-07T02:20:19.864Z,3.00
2022-09-07T02:21:26.518Z,3.20
2022-09-07T02:22:34.742Z,3.13
2022-09-07T02:23:40.696Z,3.50
2022-09-07T02:24:47.951Z,2.97
2022-09-07T02:25:55.133Z,2.83
2022-09-07T02:27:00.567Z,3.53
2022-09-07T02:28:08.521Z,3.23
2022-09-07T02:29:11.133Z,4.10
2022-09-07T02:30:14.426Z,3.73
2022-09-07T02:31:17.167Z,3.63
2022-09-07T02:32:19.124Z,3.30
2022-09-07T02:33:21.997Z,3.43
2022-09-07T02:34:24.133Z,3.00
2022-09-07T02:35:26.984Z,3.07
2022-09-07T02:36:33.720Z,3.50
2022-09-07T02:37:38.555Z,4.03
2022-09-07T02:38:40.170Z,3.47
2022-09-07T02:39:42.835Z,3.53
2022-09-07T02:40:50.608Z,3.20
2022-09-07T02:41:53.180Z,3.77
2022-09-07T02:42:57.009Z,3.00
2022-09-07T02:44:00.599Z,3.77
2022-09-07T02:45:06.314Z,3.57
2022-09-07T02:46:23.676Z,3.23
2022-09-07T02:47:33.722Z,3.90
2022-09-07T02:48:43.400Z,4.27
2022-09-07T02:50:31.049Z,5.27
2022-09-07T02:51:45.261Z,5.93
2022-09-07T02:53:02.651Z,6.90
2022-09-07T02:54:17.322Z,6.30
2022-09-07T02:55:28.006Z,6.37
2022-09-07T02:56:45.110Z,6.57
2022-09-07T02:57:56.299Z,7.70
2022-09-07T02:59:07.453Z,8.67
2022-09-07T03:00:12.953Z,9.33
2022-09-07T03:01:26.930Z,9.10
2022-09-07T03:02:35.746Z,9.70
2022-09-07T03:03:46.736Z,9.63
2022-09-07T03:04:54.576Z,8.60
2022-09-07T03:06:01.726Z,10.70
2022-09-07T03:07:09.663Z,10.17
2022-09-07T03:08:15.635Z,11.00
2022-09-07T03:09:22.084Z,11.63
2022-09-07T03:10:24.447Z,10.30
2022-09-07T03:11:27.318Z,10.57
2022-09-07T03:12:39.737Z,10.60
2022-09-07T03:13:42.389Z,10.10
2022-09-07T03:14:44.471Z,10.50
2022-09-07T03:15:47.112Z,10.03
2022-09-07T03:16:53.385Z,10.83
2022-09-07T03:17:56.036Z,11.47
2022-09-07T03:18:57.641Z,12.43
2022-09-07T03:20:00.357Z,12.40
2022-09-07T03:21:01.925Z,13.13
2022-09-07T03:22:05.025Z,14.10
2022-09-07T03:23:06.640Z,12.70
2022-09-07T03:24:09.656Z,13.73
2022-09-07T03:25:11.377Z,14.93
2022-09-07T03:26:25.065Z,14.27
2022-09-07T03:27:26.748Z,14.10
2022-09-07T03:28:29.373Z,15.83
2022-09-07T03:29:31.011Z,15.33
2022-09-07T03:30:33.999Z,14.20
2022-09-07T03:31:36.012Z,15.33
2022-09-07T03:32:40.361Z,14.60
2022-09-07T03:33:42.010Z,15.43
2022-09-07T03:34:44.732Z,14.20
2022-09-07T03:35:56.422Z,14.33
2022-09-07T03:36:59.106Z,13.10
2022-09-07T03:38:01.685Z,12.80
2022-09-07T03:39:04.795Z,13.07
2022-09-07T03:40:09.251Z,14.10
2022-09-07T03:41:12.675Z,11.80
2022-09-07T03:42:14.228Z,12.17
2022-09-07T03:43:17.611Z,12.17
2022-09-07T03:44:19.290Z,11.90
2022-09-07T03:45:21.835Z,12.77
2022-09-07T03:46:23.498Z,11.70
2022-09-07T03:47:26.130Z,11.90
2022-09-07T03:48:31.111Z,12.40
2022-09-07T03:49:33.762Z,11.10
2022-09-07T03:50:35.357Z,12.70
2022-09-07T03:51:37.932Z,12.80
2022-09-07T03:52:39.579Z,12.10
2022-09-07T03:53:44.057Z,11.80
2022-09-07T03:54:45.974Z,12.87
2022-09-07T03:55:56.977Z,10.90
2022-09-07T03:56:59.545Z,12.23
2022-09-07T03:58:01.147Z,11.33
2022-09-07T03:59:03.802Z,10.80
2022-09-07T04:00:06.382Z,11.60
2022-09-07T04:01:17.052Z,11.23
2022-09-07T04:02:18.850Z,11.40
2022-09-07T04:03:21.530Z,11.03
2022-09-07T04:04:24.534Z,11.50
2022-09-07T04:05:27.085Z,12.13
2022-09-07T04:06:29.652Z,10.90
2022-09-07T04:07:32.264Z,11.27
2022-09-07T04:08:35.328Z,12.57
2022-09-07T04:09:37.908Z,12.77
2022-09-07T04:10:40.468Z,10.40
2022-09-07T04:11:43.519Z,12.77
2022-09-07T04:12:45.117Z,10.50
2022-09-07T04:13:47.923Z,10.53
2022-09-07T04:14:49.493Z,10.23
2022-09-07T04:15:53.995Z,11.63
2022-09-07T04:16:55.884Z,10.90
2022-09-07T04:17:58.932Z,11.87
2022-09-07T04:19:00.703Z,11.20
2022-09-07T04:20:05.347Z,11.80
2022-09-07T04:21:07.245Z,12.50
2022-09-07T04:22:09.762Z,11.73
2022-09-07T04:23:11.627Z,11.30
2022-09-07T04:24:14.462Z,11.20
2022-09-07T04:25:16.688Z,11.77
2022-09-07T04:26:21.946Z,11.80
2022-09-07T04:27:23.561Z,12.10
2022-09-07T04:28:26.256Z,12.37
2022-09-07T04:29:28.132Z,11.87
2022-09-07T04:30:30.786Z,13.47
2022-09-07T04:31:33.926Z,12.57
2022-09-07T04:32:36.485Z,13.10
2022-09-07T04:33:38.093Z,12.67
2022-09-07T04:34:40.686Z,12.87
2022-09-07T04:35:43.670Z,13.27
2022-09-07T04:36:46.234Z,13.20
2022-09-07T04:37:47.878Z,13.50
2022-09-07T04:38:55.862Z,12.53
2022-09-07T04:39:57.525Z,13.53
2022-09-07T04:41:01.593Z,13.73
2022-09-07T04:42:03.513Z,12.50
2022-09-07T04:43:08.098Z,12.97
2022-09-07T04:44:16.102Z,12.43
2022-09-07T04:45:18.524Z,12.77
2022-09-07T04:46:23.413Z,14.37
2022-09-07T04:47:25.192Z,12.30
2022-09-07T04:48:27.824Z,11.90
2022-09-07T04:49:29.420Z,12.90
2022-09-07T04:50:32.385Z,11.50
2022-09-07T04:51:36.129Z,13.00
2022-09-07T04:52:38.852Z,13.50
2022-09-07T04:53:40.487Z,12.07
2022-09-07T04:54:43.217Z,12.43
2022-09-07T04:55:44.794Z,13.80
2022-09-07T04:56:47.486Z,11.93
2022-09-07T04:57:49.839Z,12.13
2022-09-07T04:58:52.958Z,11.73
2022-09-07T04:59:56.557Z,12.00
2022-09-07T05:01:01.865Z,12.40
2022-09-07T05:02:04.339Z,12.90
2022-09-07T05:03:07.275Z,13.17
2022-09-07T05:04:09.232Z,13.40
2022-09-07T05:05:12.416Z,12.87
2022-09-07T05:06:18.030Z,13.20
2022-09-07T05:07:22.153Z,14.73
2022-09-07T05:08:24.017Z,14.40
2022-09-07T05:09:27.621Z,14.07
2022-09-07T05:10:29.353Z,13.80
2022-09-07T05:11:35.181Z,14.03
2022-09-07T05:12:38.644Z,13.67
2022-09-07T05:13:41.544Z,13.30
2022-09-07T05:14:44.673Z,13.67
2022-09-07T05:15:53.860Z,12.33
2022-09-07T05:16:55.917Z,13.30
2022-09-07T05:17:59.182Z,11.90
2022-09-07T05:19:04.776Z,12.97
2022-09-07T05:20:08.533Z,14.13
2022-09-07T05:21:12.523Z,12.47
2022-09-07T05:22:15.287Z,13.57
2022-09-07T05:23:20.408Z,13.80
2022-09-07T05:24:26.412Z,12.90
2022-09-07T05:25:28.982Z,13.47
2022-09-07T05:26:34.515Z,14.40
2022-09-07T05:27:36.208Z,13.40
2022-09-07T05:28:39.714Z,12.10
2022-09-07T05:31:21.726Z,14.17
2022-09-07T05:32:24.512Z,12.93
2022-09-07T05:34:52.898Z,12.50
2022-09-07T05:35:56.890Z,14.83
2022-09-07T05:36:59.597Z,12.77
2022-09-07T05:38:01.268Z,14.20
2022-09-07T05:39:08.426Z,12.00
2022-09-07T05:40:11.324Z,13.07
2022-09-07T05:41:14.946Z,12.03
2022-09-07T05:42:17.548Z,13.20
2022-09-07T05:43:19.408Z,12.80
2022-09-07T05:45:44.034Z,11.97
2022-09-07T05:46:46.798Z,12.53
2022-09-07T05:47:50.691Z,11.70
2022-09-07T05:48:52.365Z,11.77
2022-09-07T05:49:57.383Z,12.03
2022-09-07T05:50:59.310Z,13.07
2022-09-07T05:52:02.183Z,11.47
2022-09-07T05:53:03.962Z,10.43
2022-09-07T05:54:08.335Z,10.50
2022-09-07T05:55:28.839Z,10.93
2022-09-07T05:56:35.561Z,9.60
2022-09-07T05:57:37.422Z,9.77
2022-09-07T05:58:41.091Z,9.23
2022-09-07T05:59:43.235Z,9.27
2022-09-07T06:00:46.196Z,8.70
2022-09-07T06:01:47.896Z,8.83
2022-09-07T06:02:54.678Z,9.77
2022-09-07T06:03:56.942Z,9.47
2022-09-07T06:04:59.627Z,9.90
2022-09-07T06:06:02.937Z,10.17
2022-09-07T06:07:20.994Z,8.90
2022-09-07T06:08:24.123Z,9.67
2022-09-07T06:09:30.311Z,10.27
2022-09-07T06:11:45.314Z,10.17
2022-09-07T06:12:49.230Z,10.17
2022-09-07T06:13:52.920Z,11.20
2022-09-07T06:14:54.787Z,10.40
2022-09-07T06:16:01.001Z,11.53
2022-09-07T06:17:02.806Z,11.33
2022-09-07T06:18:05.488Z,11.50
2022-09-07T06:19:09.129Z,11.73
2022-09-07T06:20:10.925Z,13.23
2022-09-07T06:21:14.851Z,11.47
2022-09-07T06:22:17.168Z,12.30
2022-09-07T06:23:19.776Z,12.30
2022-09-07T06:24:21.418Z,12.50
2022-09-07T06:25:25.428Z,11.67
2022-09-07T06:26:27.057Z,14.30
2022-09-07T06:27:29.683Z,12.83
2022-09-07T06:28:34.051Z,13.83
2022-09-07T06:29:35.638Z,14.00
2022-09-07T06:30:38.169Z,13.60
2022-09-07T06:33:02.591Z,14.90
2022-09-07T06:34:04.290Z,13.57
2022-09-07T06:35:07.457Z,15.07
2022-09-07T06:36:13.122Z,13.40
2022-09-07T06:37:14.736Z,13.90
2022-09-07T06:38:17.338Z,12.93
2022-09-07T06:39:18.925Z,14.37
2022-09-07T06:40:22.759Z,13.40
2022-09-07T06:42:52.266Z,13.20
2022-09-07T06:43:54.849Z,17.50
2022-09-07T06:44:58.509Z,14.30
2022-09-07T06:47:23.212Z,12.27
2022-09-07T06:48:25.547Z,12.50
2022-09-07T06:49:28.150Z,13.50
2022-09-07T06:50:29.749Z,12.57
2022-09-07T06:51:32.471Z,12.30
2022-09-07T06:55:20.240Z,12.03
2022-09-07T06:56:23.543Z,12.70
2022-09-07T06:57:27.160Z,12.13
2022-09-07T06:58:29.799Z,13.37
2022-09-07T06:59:31.447Z,11.83
2022-09-07T07:00:34.163Z,11.80
2022-09-07T07:01:36.692Z,12.97
2022-09-07T07:02:38.281Z,13.43
2022-09-07T07:03:41.634Z,14.60
2022-09-07T07:04:43.273Z,13.30
2022-09-07T07:05:51.756Z,11.23
2022-09-07T07:06:53.345Z,13.57
2022-09-07T07:07:56.305Z,12.93
2022-09-07T07:08:57.860Z,12.23
2022-09-07T07:10:00.445Z,9.93
2022-09-07T07:11:04.407Z,11.20
2022-09-07T07:12:06.192Z,11.83
2022-09-07T07:13:10.467Z,11.23
2022-09-07T07:14:14.844Z,11.73
2022-09-07T07:15:17.501Z,11.13
2022-09-07T07:16:19.374Z,9.73
2022-09-07T07:17:22.078Z,12.07
2022-09-07T07:18:23.638Z,11.70
2022-09-07T07:19:26.207Z,10.80
2022-09-07T07:20:28.533Z,9.93
2022-09-07T07:21:42.872Z,7.10
2022-09-07T07:22:53.649Z,7.57
2022-09-07T07:23:56.214Z,6.90
2022-09-07T07:24:57.888Z,7.20
2022-09-07T07:26:03.209Z,7.20
2022-09-07T07:27:04.798Z,6.97
2022-09-07T07:29:31.675Z,6.90
2022-09-07T07:30:33.314Z,7.30
2022-09-07T07:31:36.981Z,6.67
2022-09-07T07:32:38.572Z,6.10
2022-09-07T07:33:41.387Z,7.43
2022-09-07T07:34:43.121Z,6.43
2022-09-07T07:35:45.605Z,6.70
2022-09-07T07:36:47.161Z,7.30
2022-09-07T07:40:39.737Z,6.43
2022-09-07T07:42:03.002Z,6.80
2022-09-07T07:43:07.549Z,6.50
2022-09-07T07:44:09.450Z,5.90
2022-09-07T07:46:36.043Z,6.00
2022-09-07T07:47:38.201Z,6.57
2022-09-07T07:48:41.826Z,6.27
2022-09-07T07:49:43.412Z,6.57
2022-09-07T07:50:45.953Z,5.80
2022-09-07T07:54:33.942Z,5.40
2022-09-07T07:55:45.391Z,6.77
2022-09-07T07:56:48.120Z,6.80
2022-09-07T07:57:50.641Z,6.90
2022-09-07T07:58:53.524Z,7.33
2022-09-07T07:59:55.647Z,6.97
2022-09-07T08:01:04.907Z,6.50
2022-09-07T08:02:08.556Z,7.90
2022-09-07T08:03:10.631Z,6.87
2022-09-07T08:04:13.135Z,6.50
2022-09-07T08:05:16.981Z,7.80
2022-09-07T08:06:21.437Z,7.47
2022-09-07T08:07:23.004Z,7.90
2022-09-07T08:08:25.543Z,8.00
2022-09-07T08:09:28.162Z,8.30
2022-09-07T08:10:30.497Z,7.20
2022-09-07T08:11:34.232Z,7.67
2022-09-07T08:12:37.714Z,8.10
2022-09-07T08:13:42.347Z,7.70
2022-09-07T08:14:44.454Z,6.87
2022-09-07T08:15:47.263Z,6.93
2022-09-07T08:16:50.524Z,7.10
2022-09-07T08:17:53.148Z,7.43
2022-09-07T08:18:59.836Z,6.67
2022-09-07T08:20:03.794Z,6.83
2022-09-07T08:21:07.866Z,6.73
2022-09-07T08:22:10.745Z,7.00
2022-09-07T08:23:13.333Z,6.73
2022-09-07T08:24:14.850Z,6.10
2022-09-07T08:25:18.375Z,6.90
2022-09-07T08:26:20.967Z,6.60
2022-09-07T08:27:22.559Z,5.97
2022-09-07T08:28:25.556Z,5.33
2022-09-07T08:29:31.267Z,5.67
2022-09-07T08:30:38.898Z,4.50
2022-09-07T08:31:41.457Z,5.90
2022-09-07T08:32:44.413Z,5.87
2022-09-07T08:33:46.932Z,4.80
2022-09-07T08:34:48.492Z,3.97
2022-09-07T08:35:58.749Z,4.90
2022-09-07T08:37:00.268Z,2.73
2022-09-07T08:38:02.784Z,3.67
2022-09-07T08:39:04.375Z,4.27
2022-09-07T08:40:07.940Z,4.07
2022-09-07T08:41:41.510Z,3.33
2022-09-07T08:42:58.708Z,3.63
2022-09-07T08:44:03.293Z,4.20
2022-09-07T08:45:09.497Z,3.90
2022-09-07T08:46:23.021Z,4.37
2022-09-07T08:47:33.327Z,3.30
2022-09-07T08:48:38.087Z,3.87
2022-09-07T08:49:46.225Z,4.10
2022-09-07T08:50:53.084Z,4.27
2022-09-07T08:51:59.747Z,3.63
2022-09-07T08:53:06.500Z,3.53
2022-09-07T08:54:14.047Z,3.70
2022-09-07T08:55:22.207Z,3.07
2022-09-07T08:56:33.595Z,3.90
2022-09-07T08:57:41.448Z,3.77
2022-09-07T08:58:49.852Z,3.10
2022-09-07T08:59:57.402Z,3.20
2022-09-07T09:05:22.740Z,2.90
2022-09-07T09:06:10.831Z,3.87
2022-09-07T09:06:35.757Z,3.83
2022-09-07T09:07:48.378Z,3.47
2022-09-07T09:09:08.068Z,3.30
2022-09-07T09:10:20.177Z,3.30
2022-09-07T09:11:34.740Z,3.90
2022-09-07T09:12:55.019Z,3.40
2022-09-07T09:14:04.393Z,4.07
2022-09-07T09:15:18.041Z,3.43
2022-09-07T09:16:29.700Z,3.67
2022-09-07T09:17:35.599Z,4.00
2022-09-07T09:18:53.495Z,3.70
2022-09-07T09:20:03.009Z,3.03
2022-09-07T09:21:09.673Z,3.60
2022-09-07T09:22:14.490Z,4.00
2022-09-07T09:23:19.371Z,4.17
2022-09-07T09:24:30.714Z,2.93
2022-09-07T09:25:36.537Z,3.60
2022-09-07T09:26:42.039Z,2.97
2022-09-07T09:27:44.619Z,3.30
2022-09-07T09:28:48.203Z,3.53
2022-09-07T09:29:50.744Z,3.00
2022-09-07T09:30:52.637Z,3.17
2022-09-07T09:31:55.305Z,3.73
2022-09-07T09:33:14.311Z,3.30
2022-09-07T09:34:23.668Z,2.77
2022-09-07T09:35:32.449Z,3.50
2022-09-07T09:36:41.020Z,3.13
2022-09-07T09:37:43.713Z,3.23
2022-09-07T09:38:46.245Z,3.53
2022-09-07T09:40:02.239Z,3.60
2022-09-07T09:41:08.047Z,3.77
2022-09-07T09:42:23.152Z,3.47
2022-09-07T09:43:27.273Z,3.30
2022-09-07T09:44:35.381Z,3.90
2022-09-07T09:47:34.290Z,3.00
2022-09-07T09:48:40.264Z,2.90
2022-09-07T09:49:45.414Z,3.60
2022-09-07T09:52:43.417Z,3.97
2022-09-07T09:53:51.513Z,3.23
2022-09-07T09:55:03.351Z,3.43
2022-09-07T09:56:14.668Z,3.43
2022-09-07T09:57:17.220Z,4.10
2022-09-07T10:00:07.001Z,4.03
2022-09-07T10:01:24.843Z,3.27
2022-09-07T10:04:57.702Z,3.50
2022-09-07T10:06:02.456Z,3.70
2022-09-07T10:07:14.912Z,4.03
2022-09-07T10:08:20.283Z,4.03
2022-09-07T10:09:24.667Z,4.10
2022-09-07T10:10:28.732Z,3.47
2022-09-07T10:13:08.727Z,3.57
2022-09-07T10:14:18.442Z,3.50
2022-09-07T10:15:29.863Z,3.80
2022-09-07T10:16:39.151Z,3.30
2022-09-07T10:17:43.876Z,3.57
2022-09-07T10:18:55.443Z,3.77
2022-09-07T10:20:03.479Z,3.57
2022-09-07T10:21:23.911Z,3.30
2022-09-07T10:22:32.899Z,2.93
2022-09-07T10:23:35.454Z,3.10
2022-09-07T10:24:39.836Z,3.90
2022-09-07T10:25:44.327Z,3.97
2022-09-07T10:26:48.509Z,3.57
2022-09-07T10:28:02.245Z,3.87
2022-09-07T10:29:16.900Z,3.90
2022-09-07T10:30:19.822Z,3.50
2022-09-07T10:31:31.370Z,3.63
2022-09-07T10:32:49.160Z,3.90
2022-09-07T10:35:27.721Z,3.57
2022-09-07T10:36:40.226Z,3.20
2022-09-07T10:37:53.384Z,3.03
2022-09-07T10:39:03.107Z,3.13
2022-09-07T10:40:20.752Z,3.40
2022-09-07T10:41:38.216Z,3.30
2022-09-07T10:44:20.091Z,3.60
2022-09-07T10:45:31.765Z,3.80
2022-09-07T10:46:57.256Z,4.33
2022-09-07T10:48:08.934Z,3.60
2022-09-07T10:49:19.915Z,4.00
2022-09-07T10:50:31.960Z,3.80
2022-09-07T10:51:41.478Z,3.80
2022-09-07T10:52:51.361Z,3.83
2022-09-07T10:55:27.920Z,4.17
2022-09-07T10:56:36.626Z,4.30
2022-09-07T10:57:51.648Z,3.80
2022-09-07T10:59:07.021Z,3.40
2022-09-07T11:00:12.049Z,3.80
2022-09-07T11:01:23.746Z,4.10
2022-09-07T11:02:33.013Z,3.70
2022-09-07T11:03:54.045Z,3.83
2022-09-07T11:05:04.523Z,4.20
2022-09-07T11:06:14.780Z,4.00
2022-09-07T11:07:33.325Z,5.17
2022-09-07T11:10:19.086Z,4.13
2022-09-07T11:12:00.741Z,4.17
2022-09-07T11:12:52.538Z,3.87
2022-09-07T11:14:12.456Z,4.00
2022-09-07T11:15:22.295Z,4.70
2022-09-07T11:17:53.650Z,5.00
2022-09-07T11:20:28.642Z,4.30
2022-09-07T11:23:11.311Z,5.43
2022-09-07T11:24:26.278Z,4.40
2022-09-07T11:25:36.231Z,3.67
2022-09-07T11:26:42.345Z,4.20
2022-09-07T11:27:48.012Z,4.43
2022-09-07T11:30:21.887Z,4.00
2022-09-07T11:31:27.199Z,4.70
2022-09-07T11:32:33.334Z,4.77
2022-09-07T11:35:19.158Z,4.43
2022-09-07T11:36:22.634Z,4.00
2022-09-07T11:37:30.808Z,4.70
2022-09-07T11:38:36.195Z,5.07
2022-09-07T11:39:43.084Z,4.33
2022-09-07T11:40:57.989Z,4.40
2022-09-07T11:42:42.644Z,4.60
2022-09-07T11:43:31.611Z,4.70
2022-09-07T11:44:46.790Z,4.23
2022-09-07T11:45:53.688Z,3.57
2022-09-07T11:47:03.434Z,3.50
2022-09-07T11:48:19.443Z,3.63
2022-09-07T11:49:23.062Z,3.83
2022-09-07T11:50:27.530Z,3.83
2022-09-07T11:51:39.970Z,4.40
2022-09-07T11:52:53.642Z,3.30
2022-09-07T11:53:59.837Z,3.53
2022-09-07T11:55:07.321Z,4.70
2022-09-07T11:56:13.881Z,4.73
2022-09-07T11:57:34.830Z,4.20
2022-09-07T11:59:10.259Z,5.53
2022-09-07T12:00:19.478Z,4.63
2022-09-07T12:01:32.158Z,5.80
2022-09-07T12:02:59.341Z,4.30
2022-09-07T12:04:24.788Z,4.40
2022-09-07T12:05:45.697Z,4.83
2022-09-07T12:07:26.401Z,4.37
2022-09-07T12:08:51.232Z,4.60
2022-09-07T12:10:09.739Z,4.37
2022-09-07T12:11:31.361Z,3.83
2022-09-07T12:12:50.710Z,4.33
2022-09-07T12:14:27.688Z,3.83
2022-09-07T12:15:36.183Z,4.10
2022-09-07T12:16:55.615Z,4.00
2022-09-07T12:18:14.373Z,3.60
2022-09-07T12:19:19.196Z,3.77
2022-09-07T12:20:25.526Z,3.70
2022-09-07T12:21:31.729Z,3.40
2022-09-07T12:22:35.233Z,3.50
2022-09-07T12:23:45.698Z,3.90
2022-09-07T12:24:51.252Z,3.10
2022-09-07T12:26:13.665Z,2.87
2022-09-07T12:27:39.497Z,3.10
2022-09-07T12:29:06.004Z,2.90
2022-09-07T12:30:51.744Z,2.90
2022-09-07T12:31:59.818Z,2.90
2022-09-07T12:33:22.900Z,2.33
2022-09-07T12:34:58.808Z,2.90
2022-09-07T12:36:02.042Z,3.00
2022-09-07T12:37:36.398Z,2.87
2022-09-07T12:39:07.051Z,2.90
2022-09-07T12:40:44.676Z,2.80
2022-09-07T12:42:31.901Z,2.73
2022-09-07T12:43:32.003Z,2.53
2022-09-07T12:44:35.910Z,2.80
2022-09-07T12:45:49.646Z,3.10
2022-09-07T12:46:57.464Z,2.30
2022-09-07T12:48:04.520Z,2.90
2022-09-07T12:49:18.421Z,2.07
2022-09-07T12:50:29.767Z,2.40
2022-09-07T12:53:25.230Z,2.93
2022-09-07T12:54:34.655Z,2.60
2022-09-07T12:56:17.591Z,1.90
2022-09-07T12:57:32.709Z,2.20
2022-09-07T12:58:52.221Z,2.20
2022-09-07T13:00:05.300Z,2.47
2022-09-07T13:01:23.666Z,1.87
2022-09-07T13:02:51.677Z,1.67
2022-09-07T13:04:12.905Z,1.93
2022-09-07T13:05:25.688Z,1.60
2022-09-07T13:08:15.261Z,1.87
2022-09-07T13:09:35.309Z,1.90
2022-09-07T13:10:40.436Z,1.87
2022-09-07T13:11:42.530Z,1.70
2022-09-07T13:12:53.152Z,1.70
2022-09-07T13:14:04.224Z,1.40
2022-09-07T13:15:14.630Z,1.53
2022-09-07T13:16:29.967Z,1.63
2022-09-07T13:17:42.336Z,1.90
2022-09-07T13:18:46.357Z,1.87
2022-09-07T13:20:18.224Z,2.03
2022-09-07T13:21:42.550Z,1.47
2022-09-07T13:23:08.514Z,1.63
2022-09-07T13:24:50.383Z,1.87
2022-09-07T13:25:59.898Z,1.73
2022-09-07T13:27:05.992Z,1.90
2022-09-07T13:28:19.532Z,1.70
2022-09-07T13:29:27.876Z,1.67
2022-09-07T13:30:46.521Z,2.10
2022-09-07T13:32:03.619Z,1.70
2022-09-07T13:33:45.907Z,1.90
2022-09-07T13:35:04.960Z,1.40
2022-09-07T13:36:19.190Z,2.50
2022-09-07T13:37:23.850Z,1.60
2022-09-07T13:38:25.955Z,1.30
2022-09-07T13:39:29.947Z,1.50
2022-09-07T13:40:37.015Z,2.07
2022-09-07T13:41:44.499Z,1.40
2022-09-07T13:42:47.231Z,2.70
2022-09-07T13:43:51.070Z,1.73
2022-09-07T13:44:58.615Z,1.43
2022-09-07T13:46:02.681Z,1.37
2022-09-07T13:47:14.148Z,1.70
2022-09-07T13:48:25.242Z,1.60
2022-09-07T13:49:55.737Z,1.53
2022-09-07T13:51:07.510Z,1.40
2022-09-07T13:52:15.750Z,2.73
2022-09-07T13:53:42.623Z,1.93
2022-09-07T13:54:55.079Z,1.80
2022-09-07T13:56:08.746Z,1.77
2022-09-07T13:57:19.711Z,2.20
2022-09-07T13:58:28.921Z,1.60
2022-09-07T13:59:33.799Z,1.80
2022-09-07T14:00:36.608Z,1.80
2022-09-07T14:01:45.537Z,1.77
2022-09-07T14:02:56.337Z,1.50
2022-09-07T14:04:06.418Z,2.07
2022-09-07T14:05:10.396Z,2.07
2022-09-07T14:06:27.046Z,1.80
2022-09-07T14:07:30.603Z,1.40
2022-09-07T14:08:35.723Z,1.33
2022-09-07T14:09:42.089Z,1.43
2022-09-07T14:10:48.340Z,1.60
2022-09-07T14:11:57.494Z,1.30
2022-09-07T14:13:07.801Z,1.67
2022-09-07T14:14:14.671Z,1.70
2022-09-07T14:15:23.598Z,1.60
2022-09-07T14:16:25.250Z,1.50
2022-09-07T14:17:28.958Z,1.30
2022-09-07T14:18:32.084Z,1.23
2022-09-07T14:19:39.107Z,1.40
2022-09-07T14:20:43.977Z,1.47
2022-09-07T14:21:58.281Z,1.57
2022-09-07T14:23:00.981Z,1.50
2022-09-07T14:24:04.214Z,1.20
2022-09-07T14:25:09.095Z,1.50
2022-09-07T14:26:17.964Z,1.60
2022-09-07T14:27:27.459Z,2.03
2022-09-07T14:28:30.489Z,1.57
2022-09-07T14:29:35.623Z,1.37
2022-09-07T14:30:38.004Z,1.20
2022-09-07T14:31:40.764Z,1.97
2022-09-07T14:32:43.968Z,1.47
2022-09-07T14:33:51.994Z,1.30
2022-09-07T14:34:53.990Z,1.70
2022-09-07T14:35:57.841Z,1.20
2022-09-07T14:37:04.010Z,1.50
2022-09-07T14:38:14.250Z,1.70
2022-09-07T14:39:19.464Z,2.07
2022-09-07T14:40:24.410Z,1.50
2022-09-07T14:41:31.974Z,1.43
2022-09-07T14:42:35.869Z,1.47
2022-09-07T14:43:51.309Z,1.83
2022-09-07T14:45:18.303Z,1.73
2022-09-07T14:46:24.047Z,1.90
2022-09-07T14:47:29.665Z,1.43
2022-09-07T14:48:34.346Z,1.30
2022-09-07T14:49:37.295Z,2.23
2022-09-07T14:50:41.232Z,1.40
2022-09-07T14:51:48.381Z,1.73
2022-09-07T14:54:19.850Z,1.77
2022-09-07T14:55:30.495Z,1.87
2022-09-07T14:56:34.697Z,1.83
2022-09-07T14:57:38.660Z,1.33
2022-09-07T14:58:41.233Z,1.90
2022-09-07T14:59:45.177Z,1.30
2022-09-07T15:01:37.146Z,1.97
2022-09-07T15:02:23.925Z,1.63
2022-09-07T15:03:28.751Z,1.73
2022-09-07T15:04:31.154Z,1.90
2022-09-07T15:05:34.400Z,1.43
2022-09-07T15:08:02.697Z,1.30
2022-09-07T15:09:06.443Z,2.03
2022-09-07T15:10:26.424Z,2.27
2022-09-07T15:11:33.672Z,1.90
2022-09-07T15:12:43.962Z,1.87
2022-09-07T15:13:55.013Z,2.17
2022-09-07T15:14:56.619Z,1.40
2022-09-07T15:16:01.255Z,1.60
2022-09-07T15:18:57.925Z,1.70
2022-09-07T15:19:59.544Z,1.70
2022-09-07T15:21:02.417Z,2.20
2022-09-07T15:22:13.392Z,1.80
2022-09-07T15:23:16.791Z,1.67
2022-09-07T15:24:19.406Z,1.93
2022-09-07T15:25:21.205Z,2.50
2022-09-07T15:27:51.329Z,1.83
2022-09-07T15:29:10.927Z,1.83
2022-09-07T15:30:13.291Z,2.10
2022-09-07T15:32:40.396Z,1.63
2022-09-07T15:33:41.969Z,1.70
2022-09-07T15:34:44.556Z,1.90
2022-09-07T15:35:49.429Z,1.50
2022-09-07T15:36:55.643Z,1.73
2022-09-07T15:38:01.774Z,1.83
2022-09-07T15:39:06.429Z,2.63
2022-09-07T15:40:15.368Z,1.67
2022-09-07T15:41:24.210Z,2.20
2022-09-07T15:43:50.482Z,1.83
2022-09-07T15:44:53.667Z,1.67
2022-09-07T15:45:56.509Z,1.50
2022-09-07T15:48:23.269Z,1.50
2022-09-07T15:49:26.830Z,2.13
2022-09-07T15:50:29.611Z,2.20
2022-09-07T15:52:54.217Z,1.90